Terminal Aerodrome Forecast
Issued by NWS

Home | Current Version | Previous Version | Text Only | Print | Product List | Glossary On
Versions: 1 2 3 4 5 6 7 8 9 10 11 12 13 14 15 16 17 18 19 20 21 22 23 24 25 26 27 28 29 30 31 32 33 34 35 36 37 38 39 40 41 42
000
FTUS43 KDMX 232340
TAFOTM
TAF
KOTM 232340Z 2400/2424 16010KT P6SM BKN080
     FM240600 13008KT 6SM -SHRA BKN040
     FM241100 12011KT 4SM -SHRA BR OVC015
     FM241900 15013KT 6SM BR BKN020=

USA.gov is the U.S. government's official web portal to all federal, state and local government web resources and services.